Glogue, United Kingdom
Current Conditions -  °F | °C
As of 10:50 PM on Tuesday 21 Oct 2014 (Local Time) from EGOP Reporting Station
Broken Clouds Broken Clouds  
Wind Chill: 50°   Ceiling: 5000
Heat Index: 50°   Visibility: 6mi
Dew Point: 43°   Wind: 20mph
Humidity: 76%   Direction: 290°WNW
Pressure: 30.24"   Gusts: NA
Location:  51.96°N, 4.61°W
Report Text: EGOP 212150Z AUTO 29017KT 9999 // SCT037/// BKN050/// 10/06 Q1024
Loading
Personal Weather Stations






























Interactive Weather Map
Tropical Storm Tracking
New forecast layout! Learn more

10-Day Weather Forecast

Advertisements
Track Severe Weather on mobile